createdAt,value
2018-01-02T00:00:24.968Z,999.20
2018-01-02T00:01:25.004Z,999.20
2018-01-02T00:02:25.044Z,999.21
2018-01-02T00:03:25.060Z,999.25
2018-01-02T00:04:25.075Z,999.25
2018-01-02T00:05:25.122Z,999.25
2018-01-02T00:06:25.466Z,999.28
2018-01-02T00:07:25.166Z,999.29
2018-01-02T00:08:25.193Z,999.27
2018-01-02T00:09:25.221Z,999.29
2018-01-02T00:10:25.254Z,999.25
2018-01-02T00:11:25.300Z,999.25
2018-01-02T00:12:25.314Z,999.24
2018-01-02T00:13:25.719Z,999.28
2018-01-02T00:15:25.421Z,999.33
2018-01-02T00:16:25.467Z,999.36
2018-01-02T00:17:25.464Z,999.37
2018-01-02T00:18:25.504Z,999.32
2018-01-02T00:19:25.746Z,999.36
2018-01-02T00:20:25.875Z,999.37
2018-01-02T00:21:25.600Z,999.35
2018-01-02T00:22:25.637Z,999.38
2018-01-02T00:23:25.642Z,999.37
2018-01-02T00:24:25.674Z,999.44
2018-01-02T00:25:25.724Z,999.42
2018-01-02T00:26:25.734Z,999.44
2018-01-02T00:27:26.075Z,999.49
2018-01-02T00:28:25.796Z,999.51
2018-01-02T00:29:25.846Z,999.55
2018-01-02T00:30:25.870Z,999.53
2018-01-02T00:31:25.887Z,999.57
2018-01-02T00:32:25.935Z,999.55
2018-01-02T00:33:25.994Z,999.59
2018-01-02T00:34:26.312Z,999.61
2018-01-02T00:35:26.002Z,999.63
2018-01-02T00:36:26.053Z,999.66
2018-01-02T00:37:26.105Z,999.62
2018-01-02T00:38:26.110Z,999.63
2018-01-02T00:39:26.136Z,999.65
2018-01-02T00:40:26.250Z,999.69
2018-01-02T00:41:26.597Z,999.73
2018-01-02T00:43:26.249Z,999.72
2018-01-02T00:44:26.296Z,999.64
2018-01-02T00:45:26.329Z,999.71
2018-01-02T00:46:26.343Z,999.71
2018-01-02T00:47:26.384Z,999.72
2018-01-02T00:48:26.711Z,999.73
2018-01-02T00:49:26.430Z,999.78
2018-01-02T00:50:26.520Z,999.77
2018-01-02T00:51:26.508Z,999.81
2018-01-02T00:52:26.592Z,999.83
2018-01-02T00:53:26.574Z,999.85
2018-01-02T00:54:26.585Z,999.85
2018-01-02T00:55:26.980Z,999.86
2018-01-02T00:56:26.965Z,999.89
2018-01-02T00:57:26.664Z,999.89
2018-01-02T00:58:26.724Z,999.91
2018-01-02T00:59:26.732Z,999.92
2018-01-02T01:00:26.755Z,999.97
2018-01-02T01:01:26.784Z,1000.00
2018-01-02T01:02:27.233Z,1000.03
2018-01-02T01:03:26.910Z,1000.02
2018-01-02T01:04:26.876Z,1000.02
2018-01-02T01:05:26.916Z,1000.03
2018-01-02T01:06:26.934Z,1000.02
2018-01-02T01:07:27.135Z,1000.01
2018-01-02T01:08:27.000Z,1000.05
2018-01-02T01:09:27.342Z,1000.09
2018-01-02T01:10:27.090Z,1000.08
2018-01-02T01:11:27.105Z,1000.14
2018-01-02T01:12:27.119Z,1000.13
2018-01-02T01:13:27.165Z,1000.19
2018-01-02T01:14:27.197Z,1000.18
2018-01-02T01:15:27.505Z,1000.17
2018-01-02T01:16:27.239Z,1000.24
2018-01-02T01:17:27.284Z,1000.24
2018-01-02T01:18:27.347Z,1000.26
2018-01-02T01:19:27.324Z,1000.28
2018-01-02T01:20:27.356Z,1000.34
2018-01-02T01:21:27.687Z,1000.39
2018-01-02T01:22:27.472Z,1000.37
2018-01-02T01:23:27.464Z,1000.40
2018-01-02T01:24:27.477Z,1000.42
2018-01-02T01:25:27.504Z,1000.45
2018-01-02T01:26:27.588Z,1000.42
2018-01-02T01:27:27.883Z,1000.49
2018-01-02T01:28:27.614Z,1000.51
2018-01-02T01:29:27.717Z,1000.50
2018-01-02T01:30:27.656Z,1000.50
2018-01-02T01:31:27.685Z,1000.51
2018-01-02T01:32:27.722Z,1000.49
2018-01-02T01:33:28.050Z,1000.58
2018-01-02T01:34:27.847Z,1000.62
2018-01-02T01:35:27.814Z,1000.61
2018-01-02T01:36:27.873Z,1000.67
2018-01-02T01:37:27.881Z,1000.65
2018-01-02T01:38:27.914Z,1000.69
2018-01-02T01:39:28.232Z,1000.68
2018-01-02T01:40:27.971Z,1000.75
2018-01-02T01:41:27.990Z,1000.76
2018-01-02T01:42:28.018Z,1000.75
2018-01-02T01:43:28.048Z,1000.77
2018-01-02T01:44:28.080Z,1000.77
2018-01-02T01:45:28.409Z,1000.77
2018-01-02T01:47:28.166Z,1000.83
2018-01-02T01:48:28.197Z,1000.82
2018-01-02T01:49:28.225Z,1000.83
2018-01-02T01:50:28.262Z,1000.86
2018-01-02T01:51:28.602Z,1000.91
2018-01-02T01:52:28.316Z,1000.86
2018-01-02T01:53:28.352Z,1000.88
2018-01-02T01:54:28.375Z,1000.90
2018-01-02T01:55:28.406Z,1000.89
2018-01-02T01:56:28.457Z,1000.90
2018-01-02T01:57:28.793Z,1000.94
2018-01-02T01:58:28.511Z,1000.93
2018-01-02T01:59:28.791Z,1000.91
2018-01-02T02:00:28.573Z,1000.97
2018-01-02T02:01:28.610Z,1000.96
2018-01-02T02:02:28.638Z,1000.96
2018-01-02T02:03:28.970Z,1000.96
2018-01-02T02:04:28.686Z,1001.02
2018-01-02T02:05:28.704Z,1001.00
2018-01-02T02:06:28.811Z,1000.98
2018-01-02T02:07:28.817Z,1000.98
2018-01-02T02:08:29.118Z,1000.98
2018-01-02T02:09:29.162Z,1000.98
2018-01-02T02:10:28.910Z,1001.00
2018-01-02T02:11:28.886Z,1001.03
2018-01-02T02:12:28.923Z,1001.04
2018-01-02T02:13:28.945Z,1001.02
2018-01-02T02:14:28.976Z,1001.00
2018-01-02T02:15:29.324Z,1001.03
2018-01-02T02:16:29.093Z,1001.03
2018-01-02T02:17:29.084Z,1001.05
2018-01-02T02:18:29.093Z,1001.02
2018-01-02T02:19:29.131Z,1001.05
2018-01-02T02:20:29.176Z,1000.99
2018-01-02T02:21:29.486Z,1001.04
2018-01-02T02:22:29.267Z,1000.98
2018-01-02T02:23:29.419Z,1000.97
2018-01-02T02:24:29.276Z,1001.03
2018-01-02T02:25:29.317Z,1001.03
2018-01-02T02:26:29.338Z,1001.00
2018-01-02T02:27:29.383Z,1001.05
2018-01-02T02:28:29.764Z,1001.08
2018-01-02T02:29:29.460Z,1001.13
2018-01-02T02:30:29.454Z,1001.13
2018-01-02T02:31:29.485Z,1001.09
2018-01-02T02:32:29.514Z,1001.06
2018-01-02T02:33:29.613Z,1001.12
2018-01-02T02:34:29.577Z,1001.03
2018-01-02T02:35:29.904Z,1001.07
2018-01-02T02:36:29.633Z,1001.10
2018-01-02T02:37:29.718Z,1001.07
2018-01-02T02:38:29.703Z,1001.11
2018-01-02T02:39:29.770Z,1000.99
2018-01-02T02:40:29.756Z,1001.08
2018-01-02T02:41:29.789Z,1001.09
2018-01-02T02:42:30.203Z,1001.06
2018-01-02T02:43:29.848Z,1001.09
2018-01-02T02:44:30.054Z,1001.12
2018-01-02T02:45:29.957Z,1001.08
2018-01-02T02:46:29.934Z,1001.15
2018-01-02T02:47:29.987Z,1001.16
2018-01-02T02:48:30.018Z,1001.18
2018-01-02T02:49:30.347Z,1001.21
2018-01-02T02:50:30.116Z,1001.25
2018-01-02T02:51:30.113Z,1001.29
2018-01-02T02:52:30.117Z,1001.28
2018-01-02T02:53:30.164Z,1001.22
2018-01-02T02:54:30.191Z,1001.29
2018-01-02T02:55:30.287Z,1001.30
2018-01-02T02:57:30.284Z,1001.32
2018-01-02T02:58:30.320Z,1001.28
2018-01-02T02:59:30.342Z,1001.24
2018-01-02T03:00:30.375Z,1001.28
2018-01-02T03:01:30.383Z,1001.27
2018-01-02T03:02:30.413Z,1001.24
2018-01-02T03:03:30.761Z,1001.30
2018-01-02T03:04:30.492Z,1001.36
2018-01-02T03:05:30.554Z,1001.30
2018-01-02T03:06:30.552Z,1001.29
2018-01-02T03:07:30.587Z,1001.34
2018-01-02T03:08:30.611Z,1001.37
2018-01-02T03:09:30.674Z,1001.37
2018-01-02T03:10:30.957Z,1001.38
2018-01-02T03:11:30.688Z,1001.42
2018-01-02T03:12:30.732Z,1001.43
2018-01-02T03:13:30.745Z,1001.39
2018-01-02T03:14:30.784Z,1001.45
2018-01-02T03:15:30.825Z,1001.41
2018-01-02T03:16:30.856Z,1001.42
2018-01-02T03:17:31.163Z,1001.46
2018-01-02T03:18:30.900Z,1001.41
2018-01-02T03:19:30.946Z,1001.47
2018-01-02T03:20:30.998Z,1001.43
2018-01-02T03:21:31.052Z,1001.44
2018-01-02T03:22:31.032Z,1001.41
2018-01-02T03:23:31.053Z,1001.46
2018-01-02T03:24:31.373Z,1001.42
2018-01-02T03:25:31.107Z,1001.45
2018-01-02T03:26:31.262Z,1001.47
2018-01-02T03:27:31.231Z,1001.45
2018-01-02T03:28:31.193Z,1001.44
2018-01-02T03:29:31.261Z,1001.43
2018-01-02T03:30:31.257Z,1001.46
2018-01-02T03:31:31.607Z,1001.44
2018-01-02T03:32:31.320Z,1001.43
2018-01-02T03:33:31.341Z,1001.46
2018-01-02T03:34:31.431Z,1001.47
2018-01-02T03:35:31.420Z,1001.50
2018-01-02T03:36:31.484Z,1001.50
2018-01-02T03:37:31.490Z,1001.50
2018-01-02T03:38:31.794Z,1001.50
2018-01-02T03:39:31.593Z,1001.49
2018-01-02T03:40:31.569Z,1001.51
2018-01-02T03:41:31.688Z,1001.50
2018-01-02T03:42:31.618Z,1001.54
2018-01-02T03:43:31.675Z,1001.53
2018-01-02T03:44:31.682Z,1001.50
2018-01-02T03:45:32.025Z,1001.53
2018-01-02T03:46:31.748Z,1001.57
2018-01-02T03:47:31.812Z,1001.54
2018-01-02T03:48:31.804Z,1001.56
2018-01-02T03:49:31.852Z,1001.57
2018-01-02T03:50:31.855Z,1001.61
2018-01-02T03:51:32.189Z,1001.63
2018-01-02T03:52:31.953Z,1001.59
2018-01-02T03:53:31.960Z,1001.60
2018-01-02T03:54:32.149Z,1001.60
2018-01-02T03:55:32.022Z,1001.61
2018-01-02T03:56:32.054Z,1001.62
2018-01-02T03:57:32.418Z,1001.64
2018-01-02T03:58:32.268Z,1001.62
2018-01-02T03:59:32.155Z,1001.67
2018-01-02T04:00:32.159Z,1001.71
2018-01-02T04:01:32.298Z,1001.69
2018-01-02T04:02:32.246Z,1001.72
2018-01-02T04:03:32.564Z,1001.73
2018-01-02T04:04:32.327Z,1001.77
2018-01-02T04:05:32.314Z,1001.79
2018-01-02T04:06:32.334Z,1001.79
2018-01-02T04:07:32.363Z,1001.79
2018-01-02T04:08:32.394Z,1001.84
2018-01-02T04:09:32.725Z,1001.81
2018-01-02T04:10:32.477Z,1001.80
2018-01-02T04:11:32.485Z,1001.83
2018-01-02T04:12:32.513Z,1001.82
2018-01-02T04:13:32.560Z,1001.87
2018-01-02T04:14:32.597Z,1001.88
2018-01-02T04:15:32.905Z,1001.84
2018-01-02T04:16:32.650Z,1001.89
2018-01-02T04:17:32.683Z,1001.88
2018-01-02T04:18:32.696Z,1001.91
2018-01-02T04:19:32.752Z,1001.91
2018-01-02T04:20:32.756Z,1001.91
2018-01-02T04:21:33.102Z,1001.93
2018-01-02T04:22:32.834Z,1001.95
2018-01-02T04:23:32.862Z,1001.97
2018-01-02T04:24:32.979Z,1001.97
2018-01-02T04:25:32.921Z,1001.97
2018-01-02T04:26:32.951Z,1002.00
2018-01-02T04:27:33.268Z,1002.06
2018-01-02T04:28:33.013Z,1002.07
2018-01-02T04:29:33.042Z,1002.11
2018-01-02T04:30:33.160Z,1002.13
2018-01-02T04:31:33.091Z,1002.22
2018-01-02T04:32:33.133Z,1002.23
2018-01-02T04:33:33.461Z,1002.22
2018-01-02T04:34:33.183Z,1002.22
2018-01-02T04:35:33.226Z,1002.19
2018-01-02T04:36:33.302Z,1002.27
2018-01-02T04:37:33.284Z,1002.23
2018-01-02T04:38:33.338Z,1002.28
2018-01-02T04:39:33.668Z,1002.26
2018-01-02T04:40:33.358Z,1002.30
2018-01-02T04:41:33.436Z,1002.30
2018-01-02T04:42:33.432Z,1002.29
2018-01-02T04:43:33.461Z,1002.32
2018-01-02T04:44:33.497Z,1002.31
2018-01-02T04:45:33.829Z,1002.37
2018-01-02T04:46:33.885Z,1002.38
2018-01-02T04:47:33.570Z,1002.40
2018-01-02T04:48:33.607Z,1002.42
2018-01-02T04:49:33.651Z,1002.47
2018-01-02T04:50:33.683Z,1002.45
2018-01-02T04:51:34.056Z,1002.49
2018-01-02T04:52:33.718Z,1002.47
2018-01-02T04:53:33.763Z,1002.48
2018-01-02T04:54:33.783Z,1002.51
2018-01-02T04:55:33.816Z,1002.51
2018-01-02T04:56:33.855Z,1002.56
2018-01-02T04:57:33.887Z,1002.56
2018-01-02T04:58:34.196Z,1002.57
2018-01-02T04:59:33.947Z,1002.57
2018-01-02T05:00:34.012Z,1002.62
2018-01-02T05:01:33.991Z,1002.68
2018-01-02T05:02:34.018Z,1002.67
2018-01-02T05:03:34.053Z,1002.68
2018-01-02T05:04:34.095Z,1002.72
2018-01-02T05:05:34.406Z,1002.73
2018-01-02T05:06:34.154Z,1002.76
2018-01-02T05:07:34.185Z,1002.74
2018-01-02T05:08:34.217Z,1002.78
2018-01-02T05:09:34.274Z,1002.82
2018-01-02T05:10:34.274Z,1002.89
2018-01-02T05:11:34.350Z,1002.87
2018-01-02T05:12:34.634Z,1002.89
2018-01-02T05:13:34.367Z,1002.94
2018-01-02T05:14:34.378Z,1002.96
2018-01-02T05:15:34.406Z,1002.95
2018-01-02T05:16:34.454Z,1002.96
2018-01-02T05:17:34.494Z,1002.99
2018-01-02T05:18:34.497Z,1002.99
2018-01-02T05:19:34.866Z,1003.03
2018-01-02T05:20:34.577Z,1003.06
2018-01-02T05:21:34.610Z,1003.04
2018-01-02T05:22:34.618Z,1003.12
2018-01-02T05:23:34.670Z,1003.13
2018-01-02T05:24:34.696Z,1003.20
2018-01-02T05:25:34.727Z,1003.24
2018-01-02T05:26:35.578Z,1003.25
2018-01-02T05:27:34.787Z,1003.30
2018-01-02T05:28:34.799Z,1003.38
2018-01-02T05:29:34.827Z,1003.36
2018-01-02T05:30:34.856Z,1003.40
2018-01-02T05:31:34.885Z,1003.46
2018-01-02T05:32:34.935Z,1003.46
2018-01-02T05:33:35.254Z,1003.49
2018-01-02T05:34:34.976Z,1003.49
2018-01-02T05:35:35.033Z,1003.53
2018-01-02T05:36:35.109Z,1003.55
2018-01-02T05:37:35.090Z,1003.52
2018-01-02T05:38:35.111Z,1003.58
2018-01-02T05:39:35.128Z,1003.55
2018-01-02T05:40:35.462Z,1003.60
2018-01-02T05:41:35.224Z,1003.63
2018-01-02T05:42:35.239Z,1003.64
2018-01-02T05:43:35.263Z,1003.67
2018-01-02T05:44:35.280Z,1003.69
2018-01-02T05:45:35.327Z,1003.73
2018-01-02T05:48:35.722Z,1003.82
2018-01-02T05:49:35.425Z,1003.93
2018-01-02T05:50:35.523Z,1003.84
2018-01-02T05:51:35.510Z,1003.87
2018-01-02T05:52:35.545Z,1003.89
2018-01-02T05:53:35.551Z,1003.89
2018-01-02T05:54:35.597Z,1003.89
2018-01-02T05:55:35.920Z,1003.96
2018-01-02T05:56:35.652Z,1003.96
2018-01-02T05:57:35.690Z,1003.98
2018-01-02T05:58:35.712Z,1003.99
2018-01-02T05:59:35.796Z,1004.04
2018-01-02T06:00:35.780Z,1004.06
2018-01-02T06:01:35.820Z,1004.04
2018-01-02T06:02:36.131Z,1004.08
2018-01-02T06:03:35.907Z,1004.10
2018-01-02T06:04:35.896Z,1004.08
2018-01-02T06:05:35.995Z,1004.13
2018-01-02T06:06:35.938Z,1004.15
2018-01-02T06:07:35.967Z,1004.23
2018-01-02T06:08:36.012Z,1004.19
2018-01-02T06:09:36.327Z,1004.22
2018-01-02T06:10:36.084Z,1004.28
2018-01-02T06:12:36.143Z,1004.30
2018-01-02T06:13:36.163Z,1004.33
2018-01-02T06:14:36.175Z,1004.37
2018-01-02T06:15:36.210Z,1004.37
2018-01-02T06:16:36.561Z,1004.40
2018-01-02T06:17:36.404Z,1004.39
2018-01-02T06:18:36.311Z,1004.43
2018-01-02T06:19:36.381Z,1004.48
2018-01-02T06:20:36.439Z,1004.49
2018-01-02T06:21:36.452Z,1004.49
2018-01-02T06:22:36.741Z,1004.53
2018-01-02T06:23:36.454Z,1004.58
2018-01-02T06:24:36.525Z,1004.57
2018-01-02T06:25:36.553Z,1004.58
2018-01-02T06:26:36.538Z,1004.61
2018-01-02T06:27:36.648Z,1004.66
2018-01-02T06:28:36.917Z,1004.66
2018-01-02T06:32:36.826Z,1004.80
2018-01-02T06:33:36.840Z,1004.74
2018-01-02T06:34:37.409Z,1004.78
2018-01-02T06:35:36.840Z,1004.87
2018-01-02T06:36:36.910Z,1004.85
2018-01-02T06:37:36.916Z,1004.90
2018-01-02T06:38:36.968Z,1004.80
2018-01-02T06:39:36.969Z,1004.88
2018-01-02T06:40:37.306Z,1004.88
2018-01-02T06:41:37.058Z,1004.92
2018-01-02T06:42:37.060Z,1004.92
2018-01-02T06:43:37.142Z,1004.92
2018-01-02T06:44:37.173Z,1004.95
2018-01-02T06:45:37.181Z,1004.96
2018-01-02T06:46:37.520Z,1004.94
2018-01-02T06:47:37.309Z,1005.01
2018-01-02T06:48:37.237Z,1005.02
2018-01-02T06:49:37.422Z,1005.09
2018-01-02T06:50:37.288Z,1005.07
2018-01-02T06:51:37.333Z,1005.07
2018-01-02T06:53:37.736Z,1005.11
2018-01-02T06:54:37.447Z,1005.10
2018-01-02T06:55:37.500Z,1005.07
2018-01-02T06:56:37.531Z,1005.17
2018-01-02T06:57:37.502Z,1005.12
2018-01-02T06:58:37.525Z,1005.22
2018-01-02T06:59:37.914Z,1005.29
2018-01-02T07:00:37.658Z,1005.26
2018-01-02T07:01:37.689Z,1005.26
2018-01-02T07:02:37.644Z,1005.32
2018-01-02T07:03:37.737Z,1005.35
2018-01-02T07:04:37.746Z,1005.36
2018-01-02T07:05:38.086Z,1005.34
2018-01-02T07:06:37.775Z,1005.33
2018-01-02T07:07:37.836Z,1005.34
2018-01-02T07:08:37.886Z,1005.40
2018-01-02T07:09:37.995Z,1005.43
2018-01-02T07:10:37.946Z,1005.43
2018-01-02T07:11:38.273Z,1005.48
2018-01-02T07:12:38.253Z,1005.45
2018-01-02T07:13:37.986Z,1005.51
2018-01-02T07:14:38.063Z,1005.50
2018-01-02T07:15:38.127Z,1005.54
2018-01-02T07:16:38.130Z,1005.53
2018-01-02T07:17:38.437Z,1005.55
2018-01-02T07:18:38.116Z,1005.58
2018-01-02T07:19:38.219Z,1005.60
2018-01-02T07:20:38.228Z,1005.61
2018-01-02T07:21:38.261Z,1005.53
2018-01-02T07:22:38.254Z,1005.62
2018-01-02T07:23:38.866Z,1005.67
2018-01-02T07:24:38.392Z,1005.64
2018-01-02T07:25:38.373Z,1005.62
2018-01-02T07:26:38.404Z,1005.68
2018-01-02T07:27:38.488Z,1005.71
2018-01-02T07:28:38.495Z,1005.69
2018-01-02T07:29:38.831Z,1005.69
2018-01-02T07:30:38.535Z,1005.81
2018-01-02T07:31:38.559Z,1005.74
2018-01-02T07:32:38.607Z,1005.81
2018-01-02T07:33:38.630Z,1005.82
2018-01-02T07:34:38.662Z,1005.82
2018-01-02T07:35:38.694Z,1005.81
2018-01-02T07:36:39.052Z,1005.85
2018-01-02T07:37:38.754Z,1005.87
2018-01-02T07:38:38.874Z,1005.90
2018-01-02T07:39:38.766Z,1006.02
2018-01-02T07:40:38.865Z,1006.02
2018-01-02T07:41:38.892Z,1006.06
2018-01-02T07:42:38.941Z,1006.17
2018-01-02T07:43:39.226Z,1006.19
2018-01-02T07:45:38.986Z,1006.19
2018-01-02T07:46:39.018Z,1006.28
2018-01-02T07:47:39.033Z,1006.29
2018-01-02T07:48:39.057Z,1006.35
2018-01-02T07:49:39.063Z,1006.38
2018-01-02T07:50:39.454Z,1006.45
2018-01-02T07:51:39.151Z,1006.42
2018-01-02T07:52:39.162Z,1006.46
2018-01-02T07:53:39.224Z,1006.48
2018-01-02T07:54:39.260Z,1006.47
2018-01-02T07:55:39.240Z,1006.51
2018-01-02T07:56:39.313Z,1006.57
2018-01-02T07:57:39.628Z,1006.65
2018-01-02T07:58:39.321Z,1006.62
2018-01-02T07:59:39.409Z,1006.65
2018-01-02T08:00:39.435Z,1006.76
2018-01-02T08:01:39.463Z,1006.75
2018-01-02T08:02:39.441Z,1006.80
2018-01-02T08:03:39.514Z,1006.78
2018-01-02T08:04:39.862Z,1006.91
2018-01-02T08:05:39.589Z,1006.93
2018-01-02T08:06:39.597Z,1006.89
2018-01-02T08:07:39.649Z,1006.97
2018-01-02T08:09:39.728Z,1006.96
2018-01-02T08:10:39.736Z,1007.02
2018-01-02T08:11:40.046Z,1007.06
2018-01-02T08:12:39.725Z,1007.04
2018-01-02T08:13:39.825Z,1007.08
2018-01-02T08:14:39.835Z,1007.18
2018-01-02T08:15:39.890Z,1007.12
2018-01-02T08:16:39.945Z,1007.23
2018-01-02T08:17:39.882Z,1007.24
2018-01-02T08:18:40.275Z,1007.18
2018-01-02T08:19:40.268Z,1007.21
2018-01-02T08:20:40.029Z,1007.24
2018-01-02T08:21:39.994Z,1007.21
2018-01-02T08:22:40.040Z,1007.30
2018-01-02T08:23:40.125Z,1007.24
2018-01-02T08:24:40.104Z,1007.30
2018-01-02T08:25:40.476Z,1007.31
2018-01-02T08:26:40.211Z,1007.32
2018-01-02T08:27:40.257Z,1007.35
2018-01-02T08:28:40.212Z,1007.37
2018-01-02T08:29:40.228Z,1007.34
2018-01-02T08:30:40.286Z,1007.41
2018-01-02T08:31:40.399Z,1007.44
2018-01-02T08:32:40.685Z,1007.49
2018-01-02T08:33:40.447Z,1007.46
2018-01-02T08:34:40.409Z,1007.47
2018-01-02T08:35:40.458Z,1007.50
2018-01-02T08:36:40.487Z,1007.54
2018-01-02T08:38:40.876Z,1007.59
2018-01-02T08:39:40.583Z,1007.57
2018-01-02T08:40:40.557Z,1007.61
2018-01-02T08:42:40.740Z,1007.66
2018-01-02T08:43:40.668Z,1007.63
2018-01-02T08:44:40.749Z,1007.69
2018-01-02T08:45:41.064Z,1007.69
2018-01-02T08:46:40.754Z,1007.69
2018-01-02T08:47:40.769Z,1007.71
2018-01-02T08:48:40.849Z,1007.69
2018-01-02T08:49:40.874Z,1007.70
2018-01-02T08:50:40.919Z,1007.82
2018-01-02T08:51:41.253Z,1007.81
2018-01-02T08:52:40.992Z,1007.77
2018-01-02T08:53:41.013Z,1007.82
2018-01-02T08:54:41.038Z,1007.86
2018-01-02T08:55:41.021Z,1007.83
2018-01-02T08:56:41.106Z,1007.86
2018-01-02T08:57:41.419Z,1007.82
2018-01-02T08:58:41.145Z,1007.87
2018-01-02T08:59:41.169Z,1007.88
2018-01-02T09:02:41.336Z,1007.88
2018-01-02T09:03:41.320Z,1007.94
2018-01-02T09:04:41.631Z,1007.97
2018-01-02T09:05:41.364Z,1007.93
2018-01-02T09:06:41.379Z,1007.95
2018-01-02T09:07:41.385Z,1007.99
2018-01-02T09:08:42.459Z,1007.98
2018-01-02T09:09:41.519Z,1008.00
2018-01-02T09:10:41.813Z,1007.97
2018-01-02T09:11:41.551Z,1007.98
2018-01-02T09:12:41.575Z,1008.01
2018-01-02T09:13:41.631Z,1008.02
2018-01-02T09:14:41.648Z,1008.01
2018-01-02T09:15:41.615Z,1008.03
2018-01-02T09:16:41.999Z,1008.00
2018-01-02T09:17:41.716Z,1007.96
2018-01-02T09:18:41.790Z,1007.97
2018-01-02T09:19:41.737Z,1008.01
2018-01-02T09:20:41.812Z,1007.99
2018-01-02T09:21:41.950Z,1008.05
2018-01-02T09:22:42.156Z,1008.06
2018-01-02T09:23:42.197Z,1008.03
2018-01-02T09:24:41.924Z,1008.06
2018-01-02T09:25:41.927Z,1008.09
2018-01-02T09:26:41.946Z,1008.12
2018-01-02T09:27:42.007Z,1008.10
2018-01-02T09:28:42.344Z,1008.11
2018-01-02T09:29:42.030Z,1008.12
2018-01-02T09:30:42.046Z,1008.12
2018-01-02T09:31:42.152Z,1008.14
2018-01-02T09:33:42.172Z,1008.17
2018-01-02T09:34:42.215Z,1008.13
2018-01-02T09:35:42.565Z,1008.11
2018-01-02T09:36:42.229Z,1008.09
2018-01-02T09:37:42.310Z,1008.13
2018-01-02T09:38:42.352Z,1008.13
2018-01-02T09:39:42.392Z,1008.18
2018-01-02T09:40:42.400Z,1008.14
2018-01-02T09:41:42.876Z,1008.13
2018-01-02T09:43:42.452Z,1008.12
2018-01-02T09:44:42.645Z,1008.17
2018-01-02T09:45:42.570Z,1008.12
2018-01-02T09:46:42.575Z,1008.05
2018-01-02T09:47:42.905Z,1008.06
2018-01-02T09:48:42.605Z,1008.08
2018-01-02T09:49:42.713Z,1008.09
2018-01-02T09:50:42.711Z,1008.10
2018-01-02T09:51:42.721Z,1008.15
2018-01-02T09:52:42.774Z,1008.14
2018-01-02T09:53:43.105Z,1008.20
2018-01-02T09:54:42.831Z,1008.19
2018-01-02T09:55:42.869Z,1008.20
2018-01-02T09:56:42.885Z,1008.22
2018-01-02T09:57:42.879Z,1008.16
2018-01-02T09:58:42.967Z,1008.27
2018-01-02T09:59:43.273Z,1008.25
2018-01-02T10:00:42.961Z,1008.26
2018-01-02T10:01:42.981Z,1008.26
2018-01-02T10:03:35.537Z,1008.22
2018-01-02T10:03:43.106Z,1008.24
2018-01-02T10:04:43.139Z,1008.20
2018-01-02T10:05:43.178Z,1008.16
2018-01-02T10:06:43.495Z,1008.19
2018-01-02T10:07:43.227Z,1008.21
2018-01-02T10:08:43.232Z,1008.22
2018-01-02T10:09:43.240Z,1008.22
2018-01-02T10:10:43.265Z,1008.28
2018-01-02T10:11:43.307Z,1008.24
2018-01-02T10:12:43.408Z,1008.23
2018-01-02T10:13:43.713Z,1008.24
2018-01-02T10:15:44.590Z,1008.27
2018-01-02T10:16:43.446Z,1008.25
2018-01-02T10:17:43.522Z,1008.28
2018-01-02T10:18:43.489Z,1008.24
2018-01-02T10:19:43.644Z,1008.19
2018-01-02T10:20:46.970Z,1008.15
2018-01-02T10:21:43.648Z,1008.16
2018-01-02T10:22:43.667Z,1008.14
2018-01-02T10:23:43.738Z,1008.21
2018-01-02T10:24:43.758Z,1008.21
2018-01-02T10:25:43.758Z,1008.18
2018-01-02T10:26:43.724Z,1008.23
2018-01-02T10:27:44.144Z,1008.23
2018-01-02T10:28:43.855Z,1008.23
2018-01-02T10:29:43.868Z,1008.30
2018-01-02T10:30:43.927Z,1008.25
2018-01-02T10:31:43.958Z,1008.30
2018-01-02T10:33:44.315Z,1008.27
2018-01-02T10:34:43.986Z,1008.34
2018-01-02T10:35:44.064Z,1008.26
2018-01-02T10:36:44.100Z,1008.28
2018-01-02T10:37:44.138Z,1008.34
2018-01-02T10:38:44.158Z,1008.25
2018-01-02T10:39:44.194Z,1008.26
2018-01-02T10:40:44.518Z,1008.27
2018-01-02T10:41:44.308Z,1008.31
2018-01-02T10:42:44.280Z,1008.27
2018-01-02T10:43:44.313Z,1008.29
2018-01-02T10:44:44.343Z,1008.36
2018-01-02T10:45:44.442Z,1008.36
2018-01-02T10:46:44.417Z,1008.32
2018-01-02T10:47:44.729Z,1008.34
2018-01-02T10:48:44.449Z,1008.34
2018-01-02T10:49:44.497Z,1008.29
2018-01-02T10:50:44.529Z,1008.34
2018-01-02T10:51:44.548Z,1008.37
2018-01-02T10:52:44.528Z,1008.26
2018-01-02T10:53:44.590Z,1008.30
2018-01-02T10:54:44.975Z,1008.30
2018-01-02T10:55:44.668Z,1008.30
2018-01-02T10:56:44.645Z,1008.33
2018-01-02T10:57:44.664Z,1008.35
2018-01-02T10:58:44.747Z,1008.38
2018-01-02T10:59:44.795Z,1008.40
2018-01-02T11:01:45.168Z,1008.37
2018-01-02T11:02:44.941Z,1008.38
2018-01-02T11:03:44.898Z,1008.33
2018-01-02T11:04:44.897Z,1008.34
2018-01-02T11:06:44.980Z,1008.43
2018-01-02T11:07:45.034Z,1008.43
2018-01-02T11:08:46.030Z,1008.42
2018-01-02T11:09:45.038Z,1008.45
2018-01-02T11:11:45.154Z,1008.41
2018-01-02T11:13:45.583Z,1008.43
2018-01-02T11:14:45.238Z,1008.45
2018-01-02T11:15:45.342Z,1008.47
2018-01-02T11:16:45.307Z,1008.44
2018-01-02T11:17:45.353Z,1008.46
2018-01-02T11:18:45.388Z,1008.49
2018-01-02T11:20:45.767Z,1008.55
2018-01-02T11:21:45.561Z,1008.54
2018-01-02T11:23:45.655Z,1008.56
2018-01-02T11:24:45.778Z,1008.52
2018-01-02T11:25:45.635Z,1008.52
2018-01-02T11:27:46.046Z,1008.55
2018-01-02T11:28:45.671Z,1008.61
2018-01-02T11:29:45.765Z,1008.51
2018-01-02T11:30:45.737Z,1008.63
2018-01-02T11:31:45.848Z,1008.70
2018-01-02T11:33:46.184Z,1008.72
2018-01-02T11:34:46.093Z,1008.73
2018-01-02T11:37:45.971Z,1008.76
2018-01-02T11:38:46.060Z,1008.74
2018-01-02T11:39:46.433Z,1008.74
2018-01-02T11:40:46.037Z,1008.73
2018-01-02T11:41:46.148Z,1008.68
2018-01-02T11:42:46.121Z,1008.67
2018-01-02T11:43:46.154Z,1008.62
2018-01-02T11:45:46.588Z,1008.65
2018-01-02T11:46:47.191Z,1008.58
2018-01-02T11:47:46.343Z,1008.60
2018-01-02T11:48:46.275Z,1008.58
2018-01-02T11:49:46.323Z,1008.63
2018-01-02T11:50:46.354Z,1008.55
2018-01-02T11:51:46.764Z,1008.52
2018-01-02T11:52:46.576Z,1008.56
2018-01-02T11:53:46.494Z,1008.53
2018-01-02T11:54:46.428Z,1008.55
2018-01-02T11:55:46.455Z,1008.49
2018-01-02T11:56:46.467Z,1008.55
2018-01-02T11:57:46.790Z,1008.49
2018-01-02T11:58:46.549Z,1008.46
2018-01-02T11:59:46.753Z,1008.40
2018-01-02T12:00:46.633Z,1008.37
2018-01-02T12:01:46.648Z,1008.37
2018-01-02T12:02:46.690Z,1008.37
2018-01-02T12:03:47.009Z,1008.35
2018-01-02T12:04:46.792Z,1008.36
2018-01-02T12:05:46.788Z,1008.35
2018-01-02T12:06:46.812Z,1008.34
2018-01-02T12:07:46.845Z,1008.30
2018-01-02T12:08:46.914Z,1008.30
2018-01-02T12:09:47.225Z,1008.31
2018-01-02T12:11:46.965Z,1008.31
2018-01-02T12:12:47.052Z,1008.29
2018-01-02T12:13:47.042Z,1008.23
2018-01-02T12:14:47.111Z,1008.18
2018-01-02T12:15:47.372Z,1008.26
2018-01-02T12:18:47.107Z,1008.13
2018-01-02T12:19:47.168Z,1008.10
2018-01-02T12:20:47.182Z,1008.08
2018-01-02T12:21:47.503Z,1008.10
2018-01-02T12:22:47.240Z,1008.05
2018-01-02T12:23:47.344Z,1008.09
2018-01-02T12:24:47.332Z,1008.09
2018-01-02T12:25:47.388Z,1008.11
2018-01-02T12:28:47.777Z,1007.98
2018-01-02T12:29:47.504Z,1008.02
2018-01-02T12:30:47.585Z,1007.96
2018-01-02T12:31:47.500Z,1007.93
2018-01-02T12:32:47.542Z,1007.97
2018-01-02T12:33:47.626Z,1007.92
2018-01-02T12:34:47.639Z,1007.89
2018-01-02T12:35:47.972Z,1007.92
2018-01-02T12:36:47.712Z,1007.93
2018-01-02T12:37:47.770Z,1007.90
2018-01-02T12:38:47.757Z,1007.91
2018-01-02T12:39:47.755Z,1007.94
2018-01-02T12:40:47.820Z,1007.98
2018-01-02T12:41:47.855Z,1007.95
2018-01-02T12:42:48.208Z,1007.87
2018-01-02T12:43:47.981Z,1007.91
2018-01-02T12:44:47.959Z,1007.90